nws-alerts: Checking more than four warning/county codes can delay the loading of your pages. You should use a cron job to get the data.

Nearby METAR Reports

 

KFCI - Richmond/Chester, Virginia, USA
Distance from station: ESE 7mi, 11km
Updated: Sun, 07-Aug-2022 10:56am EDT
Clear
Clear
 Wind from varies
Wind: varies 6 mph , 9 km/h
Temperature: 82°F , 28°C
Heat Index: 87°F , 31°C
Dew Point: 73°F , 23°C
Humidity: 74%
Barometer: 30.25 inHg , 1024.4 hPa
Clouds: Clear
Visibility: 10 miles , 16 km
2022/08/07 14:56 KFCI 071456Z AUTO VRB05KT 10SM CLR 28/23 A3025 RMK AO2 SLP252 T02830228 58000
KRIC - Richmond, Virginia, USA
Distance from station: ENE 19mi, 30km
Updated: Sun, 07-Aug-2022 10:54am EDT
Mostly cloudy
Mostly cloudy
 Wind from SSE
Wind: SSE 6 mph , 9 km/h
Temperature: 84°F , 29°C
Heat Index: 89°F , 32°C
Dew Point: 72°F , 22°C
Humidity: 66%
Barometer: 30.24 inHg , 1024 hPa
Clouds: Mostly cloudy
Visibility: 10 miles , 16 km
Cloud details: Few Clouds 2600 ft
Few Clouds 5000 ft
Mostly cloudy 30000 ft
2022/08/07 14:54 KRIC 071454Z 16005KT 10SM FEW026 FEW050 BKN300 29/22 A3024 RMK AO2 SLP242 T02940222 50000
 
KPTB - Petersburg, Virginia, USA
Distance from station: SSE 19mi, 31km
Updated: Sun, 07-Aug-2022 10:55am EDT
Partly cloudy
Partly cloudy
 Wind from W
Wind: W 3 mph , 6 km/h
Temperature: 82°F , 28°C
Heat Index: 87°F , 31°C
Dew Point: 73°F , 23°C
Humidity: 74%
Barometer: 30.26 inHg , 1024.7 hPa
Clouds: Partly cloudy
Visibility: 10 miles , 16 km
Cloud details: Partly cloudy 2100 ft
2022/08/07 14:55 KPTB 071455Z AUTO 26003KT 10SM SCT021 28/23 A3026 RMK AO2 T02840229
KOFP - Richmond/Hanover, Virginia, USA
Distance from station: NNE 22mi, 36km
Updated: Sun, 07-Aug-2022 10:54am EDT
Clear
Clear
 Wind from S
Wind: S 10 mph , 17 km/h
Temperature: 84°F , 29°C
Heat Index: 89°F , 32°C
Dew Point: 72°F , 22°C
Humidity: 66%
Barometer: 30.25 inHg , 1024.4 hPa
Clouds: Clear
Visibility: 10 miles , 16 km
2022/08/07 14:54 KOFP 071454Z AUTO 18009KT 10SM CLR 29/22 A3025 RMK AO2 SLP240 T02940222 58000
 
KW96 - Quinton, Virginia, USA
Distance from station: E 28mi, 46km
Updated: Sun, 07-Aug-2022 10:55am EDT
Partly cloudy
Partly cloudy
 Wind from S
Wind: S 7 mph , 11 km/h
Temperature: 82°F , 28°C
Heat Index: 87°F , 31°C
Dew Point: 73°F , 23°C
Humidity: 74%
Barometer: 30.24 inHg , 1024 hPa
Clouds: Partly cloudy
Visibility: 10 miles , 16 km
Cloud details: Partly cloudy 2400 ft
Partly cloudy 2900 ft
2022/08/07 14:55 KW96 071455Z AUTO 19006KT 10SM SCT024 SCT029 28/23 A3024 RMK AO1 T02840225
KBKT - Blackstone Army, Virginia, USA
Distance from station: SW 30mi, 48km
Updated: Sun, 07-Aug-2022 10:56am EDT
Few Clouds
Few Clouds
 Wind from SSW
Wind: SSW 5 mph , 7 km/h
Temperature: 82°F , 28°C
Heat Index: 87°F , 31°C
Dew Point: 73°F , 23°C
Humidity: 74%
Barometer: 30.23 inHg , 1023.7 hPa
Clouds: Few Clouds
Visibility: 10 miles , 16 km
Cloud details: Few Clouds 1700 ft
2022/08/07 14:56 KBKT 071456Z AUTO 21004KT 10SM FEW017 28/23 A3023 RMK AO2 PRESFR SLP236 T02760234 50001 $
 
KW81 - Crewe, Virginia, USA
Distance from station: SW 30mi, 49km
Updated: Sun, 07-Aug-2022 10:55am EDT
Partly cloudy
Partly cloudy
 Wind from SSW
Wind: SSW 3 mph , 6 km/h
Temperature: 81°F , 27°C
Heat Index: 85°F , 29°C
Dew Point: 70°F , 21°C
Humidity: 70%
Barometer: 30.25 inHg , 1024.4 hPa
Clouds: Partly cloudy
Visibility: 10 miles , 16 km
Cloud details: Partly cloudy 1700 ft
2022/08/07 14:55 KW81 071455Z AUTO 21003KT 10SM SCT017 27/21 A3025 RMK AO1 T02650209
K7W4 - Bumpass, Virginia, USA
Distance from station: N 38mi, 61km
Updated: Sun, 07-Aug-2022 10:55am EDT
Partly cloudy
Partly cloudy
 Wind from calm
Wind: Calm
Temperature: 81°F , 27°C
Heat Index: 87°F , 31°C
Dew Point: 75°F , 24°C
Humidity: 84%
Barometer: 30.24 inHg , 1024 hPa
Clouds: Partly cloudy
Visibility: 10 miles , 16 km
Cloud details: Partly cloudy 1400 ft
2022/08/07 14:55 K7W4 071455Z AUTO 00000KT 10SM SCT014 27/24 A3024 RMK AO1 T02720238
 
KFVX - Farmville, Virginia, USA
Distance from station: W 43mi, 69km
Updated: Sun, 07-Aug-2022 11:15am EDT
Clear
Clear
 Wind from SSW
Wind: SSW 6 mph , 9 km/h
Temperature: 82°F , 28°C
Heat Index: 86°F , 30°C
Dew Point: 72°F , 22°C
Humidity: 70%
Barometer: 30.24 inHg , 1024 hPa
Clouds: Clear
Visibility: 10 miles , 16 km
2022/08/07 15:15 KFVX 071515Z AUTO 21005KT 10SM CLR 28/22 A3024 RMK AO2 T02790221
KW31 - Kenbridge, Virginia, USA
Distance from station: SW 43mi, 70km
Updated: Sun, 07-Aug-2022 10:55am EDT
Mostly cloudy
Mostly cloudy
 Wind from calm
Wind: Calm
Temperature: 81°F , 27°C
Heat Index: 86°F , 30°C
Dew Point: 73°F , 23°C
Humidity: 79%
Barometer: 30.26 inHg , 1024.7 hPa
Clouds: Mostly cloudy
Visibility: 10 miles , 16 km
Cloud details: Mostly cloudy 1700 ft
2022/08/07 14:55 KW31 071455Z AUTO 00000KT 10SM BKN017 27/23 A3026 RMK AO1 T02660231
 
KLKU - Louisa, Virginia, USA
Distance from station: NNW 44mi, 72km
Updated: Sun, 07-Aug-2022 10:55am EDT
Mostly cloudy
Mostly cloudy
 Wind from SSW
Wind: SSW 6 mph , 9 km/h
Temperature: 79°F , 26°C
Dew Point: 75°F , 24°C
Humidity: 89%
Barometer: 30.25 inHg , 1024.4 hPa
Clouds: Mostly cloudy
Visibility: 10 miles , 16 km
Cloud details: Mostly cloudy 900 ft
2022/08/07 14:55 KLKU 071455Z AUTO 20005KT 10SM BKN009 26/24 A3025 RMK AO2 T02570242
KLVL - Lawrenceville, Virginia, USA
Distance from station: S 46mi, 75km
Updated: Sun, 07-Aug-2022 10:55am EDT
Mostly cloudy
Mostly cloudy
 Wind from S
Wind: S 5 mph , 7 km/h
Temperature: 84°F , 29°C
Heat Index: 90°F , 32°C
Dew Point: 73°F , 23°C
Humidity: 70%
Barometer: 30.26 inHg , 1024.7 hPa
Clouds: Mostly cloudy
Visibility: 10 miles , 16 km
Cloud details: Mostly cloudy 2100 ft
2022/08/07 14:55 KLVL 071455Z AUTO 18004KT 10SM BKN021 29/23 A3026 RMK AO1 T02900228
 
KAKQ - Norfolk/Wakefld, Virginia, USA
Distance from station: SE 47mi, 75km
Updated: Sun, 07-Aug-2022 10:54am EDT
Few Clouds
Few Clouds
 Wind from varies
Wind: varies 3 mph , 6 km/h
Temperature: 84°F , 29°C
Heat Index: 90°F , 32°C
Dew Point: 73°F , 23°C
Humidity: 70%
Barometer: 30.25 inHg , 1024.4 hPa
Clouds: Few Clouds
Visibility: 10 miles , 16 km
Cloud details: Few Clouds 2400 ft
Few Clouds 3100 ft
2022/08/07 14:54 KAKQ 071454Z AUTO VRB03KT 10SM FEW024 FEW031 29/23 A3025 RMK AO2 SLP240 T02890228 57001
KFYJ - West Point, Virginia, USA
Distance from station: E 48mi, 78km
Updated: Tue, 12-Jul-2022 8:15am EDT
NOT Current
Clear
Clear
 Wind from SSW
Wind: SSW 7 mph , 11 km/h
Temperature: 75°F , 24°C
Dew Point: 70°F , 21°C
Humidity: 83%
Barometer: 29.90 inHg , 1012.5 hPa
Clouds: Clear
Visibility: 10 miles , 16 km
2022/07/12 12:15 KFYJ 121215Z AUTO 20006KT 10SM CLR 24/21 A2990 RMK AO1 T02350209